Terminal Aerodrome Forecast
Issued by NWS

Home | Current Version | Previous Version | Text Only | Print | Product List | Glossary On
Versions: 1 2 3 4 5 6 7 8 9 10 11 12 13 14 15 16 17 18 19 20 21 22 23 24 25 26 27 28 29 30 31 32 33 34 35 36 37 38 39 40 41 42 43 44 45 46
696
FTUS45 KBOU 281457 AAA
TAFBJC
TAF AMD
KBJC 281457Z 2815/2912 33004KT P6SM BKN010
     FM281700 03010KT P6SM FEW080 SCT140
     FM282200 06012G20KT P6SM SCT080 BKN120
      TEMPO 2823/2903 VRB20G35KT -TSRA BKN070CB
     FM290300 11010KT P6SM VCTS SCT070CB BKN120
     FM290600 VRB04KT P6SM SCT070 BKN120=

USA.gov is the U.S. government's official web portal to all federal, state and local government web resources and services.